sensor_id;sensor_type;location;lat;lon;timestamp;temperature;humidity
28069;DHT22;15382;47.578;8.086;2023-07-13T00:09:47;18.20;99.90
28069;DHT22;15382;47.578;8.086;2023-07-13T00:19:48;17.60;99.90
28069;DHT22;15382;47.578;8.086;2023-07-13T00:29:49;17.40;99.90
28069;DHT22;15382;47.578;8.086;2023-07-13T00:39:49;17.70;99.90
28069;DHT22;15382;47.578;8.086;2023-07-13T00:49:50;17.50;99.90
28069;DHT22;15382;47.578;8.086;2023-07-13T00:59:52;17.60;99.90
28069;DHT22;15382;47.578;8.086;2023-07-13T01:09:54;17.60;99.90
28069;DHT22;15382;47.578;8.086;2023-07-13T01:19:55;17.70;99.90
28069;DHT22;15382;47.578;8.086;2023-07-13T01:29:57;17.60;99.90
28069;DHT22;15382;47.578;8.086;2023-07-13T01:40:03;17.70;99.90
28069;DHT22;15382;47.578;8.086;2023-07-13T01:50:05;17.60;99.90
28069;DHT22;15382;47.578;8.086;2023-07-13T02:00:06;17.80;99.90
28069;DHT22;15382;47.578;8.086;2023-07-13T02:10:16;17.80;99.90
28069;DHT22;15382;47.578;8.086;2023-07-13T02:20:17;17.60;99.90
28069;DHT22;15382;47.578;8.086;2023-07-13T02:30:17;17.50;99.90
28069;DHT22;15382;47.578;8.086;2023-07-13T02:40:18;17.60;99.90
28069;DHT22;15382;47.578;8.086;2023-07-13T02:50:19;17.40;99.90
28069;DHT22;15382;47.578;8.086;2023-07-13T03:00:19;17.40;99.90
28069;DHT22;15382;47.578;8.086;2023-07-13T03:10:20;17.20;99.90
28069;DHT22;15382;47.578;8.086;2023-07-13T03:20:24;17.10;99.90
28069;DHT22;15382;47.578;8.086;2023-07-13T03:30:24;17.40;99.90
28069;DHT22;15382;47.578;8.086;2023-07-13T03:40:27;17.50;99.90
28069;DHT22;15382;47.578;8.086;2023-07-13T03:50:28;17.30;99.90
28069;DHT22;15382;47.578;8.086;2023-07-13T04:00:30;17.50;99.90
28069;DHT22;15382;47.578;8.086;2023-07-13T04:10:31;17.50;99.90
28069;DHT22;15382;47.578;8.086;2023-07-13T04:20:32;17.50;99.90
28069;DHT22;15382;47.578;8.086;2023-07-13T04:30:33;17.60;99.90
28069;DHT22;15382;47.578;8.086;2023-07-13T04:40:33;17.60;99.90
28069;DHT22;15382;47.578;8.086;2023-07-13T04:50:36;17.60;99.90
28069;DHT22;15382;47.578;8.086;2023-07-13T05:00:37;17.70;99.90
28069;DHT22;15382;47.578;8.086;2023-07-13T05:10:37;17.90;99.90
28069;DHT22;15382;47.578;8.086;2023-07-13T05:20:38;18.00;99.90
28069;DHT22;15382;47.578;8.086;2023-07-13T05:30:38;18.10;99.90
28069;DHT22;15382;47.578;8.086;2023-07-13T05:40:39;18.20;99.90
28069;DHT22;15382;47.578;8.086;2023-07-13T05:50:40;18.30;99.90
28069;DHT22;15382;47.578;8.086;2023-07-13T06:00:40;18.40;99.90
28069;DHT22;15382;47.578;8.086;2023-07-13T06:10:41;18.60;99.90
28069;DHT22;15382;47.578;8.086;2023-07-13T06:20:42;18.40;99.90
28069;DHT22;15382;47.578;8.086;2023-07-13T06:30:42;18.40;99.90
28069;DHT22;15382;47.578;8.086;2023-07-13T06:40:43;18.60;99.90
28069;DHT22;15382;47.578;8.086;2023-07-13T06:50:44;18.90;99.90
28069;DHT22;15382;47.578;8.086;2023-07-13T07:00:44;18.80;99.90
28069;DHT22;15382;47.578;8.086;2023-07-13T07:10:45;18.90;99.90
28069;DHT22;15382;47.578;8.086;2023-07-13T07:20:48;18.90;99.90
28069;DHT22;15382;47.578;8.086;2023-07-13T07:30:49;19.30;99.90
28069;DHT22;15382;47.578;8.086;2023-07-13T07:40:53;19.10;99.90
28069;DHT22;15382;47.578;8.086;2023-07-13T07:50:54;19.30;99.90
28069;DHT22;15382;47.578;8.086;2023-07-13T08:01:01;19.90;99.90
28069;DHT22;15382;47.578;8.086;2023-07-13T08:11:02;20.70;99.90
28069;DHT22;15382;47.578;8.086;2023-07-13T08:21:04;20.90;99.90
28069;DHT22;15382;47.578;8.086;2023-07-13T08:31:05;21.00;99.90
28069;DHT22;15382;47.578;8.086;2023-07-13T08:41:11;21.50;99.90
28069;DHT22;15382;47.578;8.086;2023-07-13T09:01:30;22.70;99.90
28069;DHT22;15382;47.578;8.086;2023-07-13T09:21:44;22.70;99.90
28069;DHT22;15382;47.578;8.086;2023-07-13T09:31:47;23.30;99.90
28069;DHT22;15382;47.578;8.086;2023-07-13T09:41:51;23.40;99.90
28069;DHT22;15382;47.578;8.086;2023-07-13T09:52:01;23.70;99.90
28069;DHT22;15382;47.578;8.086;2023-07-13T10:02:16;24.20;99.90
28069;DHT22;15382;47.578;8.086;2023-07-13T10:12:22;24.70;99.90
28069;DHT22;15382;47.578;8.086;2023-07-13T10:22:27;24.60;99.90
28069;DHT22;15382;47.578;8.086;2023-07-13T10:32:32;24.80;99.90
28069;DHT22;15382;47.578;8.086;2023-07-13T10:42:37;25.90;99.90
28069;DHT22;15382;47.578;8.086;2023-07-13T10:52:44;27.10;99.90
28069;DHT22;15382;47.578;8.086;2023-07-13T11:02:56;25.70;99.90
28069;DHT22;15382;47.578;8.086;2023-07-13T11:12:57;26.10;99.90
28069;DHT22;15382;47.578;8.086;2023-07-13T11:33:16;27.40;99.90
28069;DHT22;15382;47.578;8.086;2023-07-13T11:43:16;25.50;99.90
28069;DHT22;15382;47.578;8.086;2023-07-13T11:53:17;26.60;99.90
28069;DHT22;15382;47.578;8.086;2023-07-13T12:03:19;26.90;98.70
28069;DHT22;15382;47.578;8.086;2023-07-13T12:13:20;26.70;98.00
28069;DHT22;15382;47.578;8.086;2023-07-13T12:23:31;27.10;98.60
28069;DHT22;15382;47.578;8.086;2023-07-13T12:33:33;26.70;97.60
28069;DHT22;15382;47.578;8.086;2023-07-13T12:43:34;25.90;97.30
28069;DHT22;15382;47.578;8.086;2023-07-13T12:53:48;27.20;97.10
28069;DHT22;15382;47.578;8.086;2023-07-13T13:03:50;26.20;96.30
28069;DHT22;15382;47.578;8.086;2023-07-13T13:13:55;26.10;96.40
28069;DHT22;15382;47.578;8.086;2023-07-13T13:23:55;26.30;96.80
28069;DHT22;15382;47.578;8.086;2023-07-13T13:33:56;26.60;94.10
28069;DHT22;15382;47.578;8.086;2023-07-13T13:43:57;27.70;93.50
28069;DHT22;15382;47.578;8.086;2023-07-13T13:53:57;27.70;91.50
28069;DHT22;15382;47.578;8.086;2023-07-13T14:03:58;27.40;92.00
28069;DHT22;15382;47.578;8.086;2023-07-13T14:13:59;27.30;91.10
28069;DHT22;15382;47.578;8.086;2023-07-13T14:24:01;27.00;91.20
28069;DHT22;15382;47.578;8.086;2023-07-13T14:34:01;26.50;89.30
28069;DHT22;15382;47.578;8.086;2023-07-13T14:44:08;27.40;90.10
28069;DHT22;15382;47.578;8.086;2023-07-13T14:54:08;26.90;89.20
28069;DHT22;15382;47.578;8.086;2023-07-13T15:04:09;27.40;85.70
28069;DHT22;15382;47.578;8.086;2023-07-13T15:14:10;27.50;85.30
28069;DHT22;15382;47.578;8.086;2023-07-13T15:24:13;26.70;80.60
28069;DHT22;15382;47.578;8.086;2023-07-13T15:34:14;27.20;82.70
28069;DHT22;15382;47.578;8.086;2023-07-13T15:44:23;27.20;82.60
28069;DHT22;15382;47.578;8.086;2023-07-13T15:54:25;26.60;78.60
28069;DHT22;15382;47.578;8.086;2023-07-13T16:04:25;26.20;78.40
28069;DHT22;15382;47.578;8.086;2023-07-13T16:14:26;26.20;77.10
28069;DHT22;15382;47.578;8.086;2023-07-13T16:24:27;25.90;81.00
28069;DHT22;15382;47.578;8.086;2023-07-13T16:34:32;26.00;83.30
28069;DHT22;15382;47.578;8.086;2023-07-13T16:44:33;25.50;84.60
28069;DHT22;15382;47.578;8.086;2023-07-13T16:54:35;25.30;86.00
28069;DHT22;15382;47.578;8.086;2023-07-13T17:04:35;25.50;87.50
28069;DHT22;15382;47.578;8.086;2023-07-13T17:14:36;25.40;90.00
28069;DHT22;15382;47.578;8.086;2023-07-13T17:24:39;24.90;91.20
28069;DHT22;15382;47.578;8.086;2023-07-13T17:34:44;24.80;90.90
28069;DHT22;15382;47.578;8.086;2023-07-13T17:44:45;24.70;91.90
28069;DHT22;15382;47.578;8.086;2023-07-13T17:54:46;24.90;92.50
28069;DHT22;15382;47.578;8.086;2023-07-13T18:04:47;24.70;92.00
28069;DHT22;15382;47.578;8.086;2023-07-13T18:14:48;26.10;91.70
28069;DHT22;15382;47.578;8.086;2023-07-13T18:24:49;27.10;90.40
28069;DHT22;15382;47.578;8.086;2023-07-13T18:34:50;26.10;90.40
28069;DHT22;15382;47.578;8.086;2023-07-13T18:44:52;25.00;92.10
28069;DHT22;15382;47.578;8.086;2023-07-13T18:54:53;23.40;94.80
28069;DHT22;15382;47.578;8.086;2023-07-13T19:04:53;22.50;97.10
28069;DHT22;15382;47.578;8.086;2023-07-13T19:14:54;21.60;99.90
28069;DHT22;15382;47.578;8.086;2023-07-13T19:24:55;20.70;99.90
28069;DHT22;15382;47.578;8.086;2023-07-13T19:34:55;20.00;99.90
28069;DHT22;15382;47.578;8.086;2023-07-13T19:44:57;19.70;99.90
28069;DHT22;15382;47.578;8.086;2023-07-13T19:54:58;19.70;99.90
28069;DHT22;15382;47.578;8.086;2023-07-13T20:04:59;19.60;99.90
28069;DHT22;15382;47.578;8.086;2023-07-13T20:15:12;19.30;99.90
28069;DHT22;15382;47.578;8.086;2023-07-13T20:25:15;19.00;99.90
28069;DHT22;15382;47.578;8.086;2023-07-13T20:45:23;18.10;99.90
28069;DHT22;15382;47.578;8.086;2023-07-13T20:55:27;17.80;99.90
28069;DHT22;15382;47.578;8.086;2023-07-13T21:05:38;17.40;99.90
28069;DHT22;15382;47.578;8.086;2023-07-13T21:15:40;17.60;99.90
28069;DHT22;15382;47.578;8.086;2023-07-13T21:25:41;17.10;99.90
28069;DHT22;15382;47.578;8.086;2023-07-13T21:35:41;16.60;99.90
28069;DHT22;15382;47.578;8.086;2023-07-13T21:45:43;16.70;99.90
28069;DHT22;15382;47.578;8.086;2023-07-13T21:55:43;16.30;99.90
28069;DHT22;15382;47.578;8.086;2023-07-13T22:05:44;16.20;99.90
28069;DHT22;15382;47.578;8.086;2023-07-13T22:15:46;15.80;99.90
28069;DHT22;15382;47.578;8.086;2023-07-13T22:25:47;15.60;99.90
28069;DHT22;15382;47.578;8.086;2023-07-13T22:35:48;15.70;99.90
28069;DHT22;15382;47.578;8.086;2023-07-13T22:45:50;15.20;99.90
28069;DHT22;15382;47.578;8.086;2023-07-13T22:55:51;14.90;99.90
28069;DHT22;15382;47.578;8.086;2023-07-13T23:05:52;14.90;99.90
28069;DHT22;15382;47.578;8.086;2023-07-13T23:15:54;15.20;99.90
28069;DHT22;15382;47.578;8.086;2023-07-13T23:25:55;15.40;99.90
28069;DHT22;15382;47.578;8.086;2023-07-13T23:35:56;15.70;99.90
28069;DHT22;15382;47.578;8.086;2023-07-13T23:46:03;15.70;99.90
28069;DHT22;15382;47.578;8.086;2023-07-13T23:56:12;15.70;99.90
